sensor_id;sensor_type;location;lat;lon;timestamp;temperature;humidity
23271;DHT22;11804;51.118;17.058;2024-02-26T00:00:15;4.90;99.90
23271;DHT22;11804;51.118;17.058;2024-02-26T00:02:43;5.40;99.90
23271;DHT22;11804;51.118;17.058;2024-02-26T00:05:10;4.60;99.90
23271;DHT22;11804;51.118;17.058;2024-02-26T00:07:38;5.40;99.90
23271;DHT22;11804;51.118;17.058;2024-02-26T00:10:07;5.20;99.90
23271;DHT22;11804;51.118;17.058;2024-02-26T00:12:35;5.20;99.90
23271;DHT22;11804;51.118;17.058;2024-02-26T00:15:02;5.00;99.90
23271;DHT22;11804;51.118;17.058;2024-02-26T00:17:30;5.10;99.90
23271;DHT22;11804;51.118;17.058;2024-02-26T00:19:58;5.00;99.90
23271;DHT22;11804;51.118;17.058;2024-02-26T00:22:27;4.90;99.90
23271;DHT22;11804;51.118;17.058;2024-02-26T00:24:54;5.00;99.90
23271;DHT22;11804;51.118;17.058;2024-02-26T00:27:22;5.10;99.90
23271;DHT22;11804;51.118;17.058;2024-02-26T00:29:50;5.00;99.90
23271;DHT22;11804;51.118;17.058;2024-02-26T00:32:17;4.90;99.90
23271;DHT22;11804;51.118;17.058;2024-02-26T00:34:45;5.00;99.90
23271;DHT22;11804;51.118;17.058;2024-02-26T00:37:12;5.00;99.90
23271;DHT22;11804;51.118;17.058;2024-02-26T00:39:40;4.90;99.90
23271;DHT22;11804;51.118;17.058;2024-02-26T00:42:08;4.90;99.90
23271;DHT22;11804;51.118;17.058;2024-02-26T00:44:35;4.90;99.90
23271;DHT22;11804;51.118;17.058;2024-02-26T00:47:03;5.00;99.90
23271;DHT22;11804;51.118;17.058;2024-02-26T00:49:30;5.00;99.90
23271;DHT22;11804;51.118;17.058;2024-02-26T00:51:58;5.10;99.90
23271;DHT22;11804;51.118;17.058;2024-02-26T00:54:26;5.10;99.90
23271;DHT22;11804;51.118;17.058;2024-02-26T00:56:53;5.10;99.90
23271;DHT22;11804;51.118;17.058;2024-02-26T00:59:21;4.90;99.90
23271;DHT22;11804;51.118;17.058;2024-02-26T01:49:15;4.50;99.90
23271;DHT22;11804;51.118;17.058;2024-02-26T01:51:43;4.80;99.90
23271;DHT22;11804;51.118;17.058;2024-02-26T01:54:12;4.40;99.90
23271;DHT22;11804;51.118;17.058;2024-02-26T01:56:40;4.50;99.90
23271;DHT22;11804;51.118;17.058;2024-02-26T01:59:09;4.40;99.90
23271;DHT22;11804;51.118;17.058;2024-02-26T02:01:36;4.30;99.90
23271;DHT22;11804;51.118;17.058;2024-02-26T02:04:08;4.10;99.90
23271;DHT22;11804;51.118;17.058;2024-02-26T02:06:38;4.00;99.90
23271;DHT22;11804;51.118;17.058;2024-02-26T02:14:05;4.20;99.90
23271;DHT22;11804;51.118;17.058;2024-02-26T02:16:35;4.20;99.90
23271;DHT22;11804;51.118;17.058;2024-02-26T02:19:05;3.90;99.90
23271;DHT22;11804;51.118;17.058;2024-02-26T02:21:34;3.90;99.90
23271;DHT22;11804;51.118;17.058;2024-02-26T02:24:05;3.80;99.90
23271;DHT22;11804;51.118;17.058;2024-02-26T02:26:35;3.90;99.90
23271;DHT22;11804;51.118;17.058;2024-02-26T02:31:33;3.80;99.90
23271;DHT22;11804;51.118;17.058;2024-02-26T02:36:30;3.70;99.90
23271;DHT22;11804;51.118;17.058;2024-02-26T02:38:58;4.00;99.90
23271;DHT22;11804;51.118;17.058;2024-02-26T02:41:25;3.80;99.90
23271;DHT22;11804;51.118;17.058;2024-02-26T02:43:55;3.80;99.90
23271;DHT22;11804;51.118;17.058;2024-02-26T02:46:22;3.90;99.90
23271;DHT22;11804;51.118;17.058;2024-02-26T02:48:50;4.00;99.90
23271;DHT22;11804;51.118;17.058;2024-02-26T02:51:18;4.10;99.90
23271;DHT22;11804;51.118;17.058;2024-02-26T02:53:45;4.20;99.90
23271;DHT22;11804;51.118;17.058;2024-02-26T02:56:13;4.30;99.90
23271;DHT22;11804;51.118;17.058;2024-02-26T02:58:40;4.30;99.90
23271;DHT22;11804;51.118;17.058;2024-02-26T03:01:08;4.20;99.90
23271;DHT22;11804;51.118;17.058;2024-02-26T03:03:35;4.20;99.90
23271;DHT22;11804;51.118;17.058;2024-02-26T03:06:04;4.10;99.90
23271;DHT22;11804;51.118;17.058;2024-02-26T03:08:31;4.00;99.90
23271;DHT22;11804;51.118;17.058;2024-02-26T03:10:59;4.20;99.90
23271;DHT22;11804;51.118;17.058;2024-02-26T03:13:27;4.10;99.90
23271;DHT22;11804;51.118;17.058;2024-02-26T03:15:56;3.90;99.90
23271;DHT22;11804;51.118;17.058;2024-02-26T03:18:24;3.80;99.90
23271;DHT22;11804;51.118;17.058;2024-02-26T03:20:56;3.80;99.90
23271;DHT22;11804;51.118;17.058;2024-02-26T03:23:20;3.50;99.90
23271;DHT22;11804;51.118;17.058;2024-02-26T03:25:48;3.50;99.90
23271;DHT22;11804;51.118;17.058;2024-02-26T03:28:16;3.80;99.90
23271;DHT22;11804;51.118;17.058;2024-02-26T03:30:45;3.70;99.90
23271;DHT22;11804;51.118;17.058;2024-02-26T03:33:12;4.00;99.90
23271;DHT22;11804;51.118;17.058;2024-02-26T03:35:40;3.80;99.90
23271;DHT22;11804;51.118;17.058;2024-02-26T03:38:08;3.90;99.90
23271;DHT22;11804;51.118;17.058;2024-02-26T03:43:02;3.90;99.90
23271;DHT22;11804;51.118;17.058;2024-02-26T03:45:31;3.50;99.90
23271;DHT22;11804;51.118;17.058;2024-02-26T03:47:59;3.80;99.90
23271;DHT22;11804;51.118;17.058;2024-02-26T03:50:26;3.70;99.90
23271;DHT22;11804;51.118;17.058;2024-02-26T03:52:54;3.80;99.90
23271;DHT22;11804;51.118;17.058;2024-02-26T03:55:23;3.80;99.90
23271;DHT22;11804;51.118;17.058;2024-02-26T03:57:52;3.40;99.90
23271;DHT22;11804;51.118;17.058;2024-02-26T04:00:20;3.90;99.90
23271;DHT22;11804;51.118;17.058;2024-02-26T04:02:48;3.90;99.90
23271;DHT22;11804;51.118;17.058;2024-02-26T04:05:16;3.90;99.90
23271;DHT22;11804;51.118;17.058;2024-02-26T04:07:43;3.90;99.90
23271;DHT22;11804;51.118;17.058;2024-02-26T04:10:13;4.00;99.90
23271;DHT22;11804;51.118;17.058;2024-02-26T04:12:42;3.90;99.90
23271;DHT22;11804;51.118;17.058;2024-02-26T04:15:11;4.00;99.90
23271;DHT22;11804;51.118;17.058;2024-02-26T04:17:38;3.90;99.90
23271;DHT22;11804;51.118;17.058;2024-02-26T04:20:07;3.80;99.90
23271;DHT22;11804;51.118;17.058;2024-02-26T04:22:35;3.80;99.90
23271;DHT22;11804;51.118;17.058;2024-02-26T04:25:02;3.90;99.90
23271;DHT22;11804;51.118;17.058;2024-02-26T04:27:30;3.90;99.90
23271;DHT22;11804;51.118;17.058;2024-02-26T04:29:57;4.00;99.90
23271;DHT22;11804;51.118;17.058;2024-02-26T04:32:25;3.70;99.90
23271;DHT22;11804;51.118;17.058;2024-02-26T04:34:54;3.70;99.90
23271;DHT22;11804;51.118;17.058;2024-02-26T04:37:22;3.60;99.90
23271;DHT22;11804;51.118;17.058;2024-02-26T04:39:49;3.80;99.90
23271;DHT22;11804;51.118;17.058;2024-02-26T04:42:17;3.90;99.90
23271;DHT22;11804;51.118;17.058;2024-02-26T04:44:45;3.90;99.90
23271;DHT22;11804;51.118;17.058;2024-02-26T04:47:12;3.90;99.90
23271;DHT22;11804;51.118;17.058;2024-02-26T04:49:40;3.50;99.90
23271;DHT22;11804;51.118;17.058;2024-02-26T04:52:08;3.90;99.90
23271;DHT22;11804;51.118;17.058;2024-02-26T04:54:35;4.00;99.90
23271;DHT22;11804;51.118;17.058;2024-02-26T04:57:03;3.70;99.90
23271;DHT22;11804;51.118;17.058;2024-02-26T04:59:31;3.90;99.90
23271;DHT22;11804;51.118;17.058;2024-02-26T05:01:58;3.80;99.90
23271;DHT22;11804;51.118;17.058;2024-02-26T05:04:26;3.90;99.90
23271;DHT22;11804;51.118;17.058;2024-02-26T05:06:55;3.80;99.90
23271;DHT22;11804;51.118;17.058;2024-02-26T05:09:23;3.90;99.90
23271;DHT22;11804;51.118;17.058;2024-02-26T05:11:51;3.90;99.90
23271;DHT22;11804;51.118;17.058;2024-02-26T05:14:18;4.00;99.90
23271;DHT22;11804;51.118;17.058;2024-02-26T05:16:46;3.80;99.90
23271;DHT22;11804;51.118;17.058;2024-02-26T05:19:13;3.80;99.90
23271;DHT22;11804;51.118;17.058;2024-02-26T05:21:41;3.70;99.90
23271;DHT22;11804;51.118;17.058;2024-02-26T05:24:10;3.80;99.90
23271;DHT22;11804;51.118;17.058;2024-02-26T05:26:38;3.70;99.90
23271;DHT22;11804;51.118;17.058;2024-02-26T05:29:06;3.70;99.90
23271;DHT22;11804;51.118;17.058;2024-02-26T05:31:33;3.70;99.90
23271;DHT22;11804;51.118;17.058;2024-02-26T05:34:01;3.50;99.90
23271;DHT22;11804;51.118;17.058;2024-02-26T05:36:28;3.30;99.90
23271;DHT22;11804;51.118;17.058;2024-02-26T05:38:58;3.60;99.90
23271;DHT22;11804;51.118;17.058;2024-02-26T05:41:25;3.60;99.90
23271;DHT22;11804;51.118;17.058;2024-02-26T05:43:53;3.60;99.90
23271;DHT22;11804;51.118;17.058;2024-02-26T05:46:21;3.50;99.90
23271;DHT22;11804;51.118;17.058;2024-02-26T05:48:52;3.50;99.90
23271;DHT22;11804;51.118;17.058;2024-02-26T05:51:20;3.40;99.90
23271;DHT22;11804;51.118;17.058;2024-02-26T05:53:47;3.30;99.90
23271;DHT22;11804;51.118;17.058;2024-02-26T05:56:17;3.40;99.90
23271;DHT22;11804;51.118;17.058;2024-02-26T05:58:44;3.40;99.90
23271;DHT22;11804;51.118;17.058;2024-02-26T06:01:12;3.40;99.90
23271;DHT22;11804;51.118;17.058;2024-02-26T06:03:40;3.50;99.90
23271;DHT22;11804;51.118;17.058;2024-02-26T06:06:07;3.70;99.90
23271;DHT22;11804;51.118;17.058;2024-02-26T06:08:35;3.70;99.90
23271;DHT22;11804;51.118;17.058;2024-02-26T06:11:06;3.80;99.90
23271;DHT22;11804;51.118;17.058;2024-02-26T06:13:35;3.70;99.90
23271;DHT22;11804;51.118;17.058;2024-02-26T06:16:04;3.80;99.90
23271;DHT22;11804;51.118;17.058;2024-02-26T06:18:31;3.90;99.90
23271;DHT22;11804;51.118;17.058;2024-02-26T06:20:59;4.00;99.90
23271;DHT22;11804;51.118;17.058;2024-02-26T06:23:28;4.00;99.90
23271;DHT22;11804;51.118;17.058;2024-02-26T06:25:56;4.20;99.90
23271;DHT22;11804;51.118;17.058;2024-02-26T06:28:24;4.20;99.90
23271;DHT22;11804;51.118;17.058;2024-02-26T06:30:51;4.30;99.90
23271;DHT22;11804;51.118;17.058;2024-02-26T06:33:19;4.30;99.90
23271;DHT22;11804;51.118;17.058;2024-02-26T06:35:46;4.50;99.90
23271;DHT22;11804;51.118;17.058;2024-02-26T06:38:14;4.60;99.90
23271;DHT22;11804;51.118;17.058;2024-02-26T06:40:42;4.50;99.90
23271;DHT22;11804;51.118;17.058;2024-02-26T06:43:09;4.40;99.90
23271;DHT22;11804;51.118;17.058;2024-02-26T06:45:37;4.50;99.90
23271;DHT22;11804;51.118;17.058;2024-02-26T06:48:05;4.60;99.90
23271;DHT22;11804;51.118;17.058;2024-02-26T06:50:33;4.50;99.90
23271;DHT22;11804;51.118;17.058;2024-02-26T06:53:00;4.40;99.90
23271;DHT22;11804;51.118;17.058;2024-02-26T06:55:28;4.40;99.90
23271;DHT22;11804;51.118;17.058;2024-02-26T06:57:55;4.70;99.90
23271;DHT22;11804;51.118;17.058;2024-02-26T07:00:23;4.50;99.90
23271;DHT22;11804;51.118;17.058;2024-02-26T07:02:51;4.60;99.90
23271;DHT22;11804;51.118;17.058;2024-02-26T07:05:18;4.70;99.90
23271;DHT22;11804;51.118;17.058;2024-02-26T07:07:46;4.80;99.90
23271;DHT22;11804;51.118;17.058;2024-02-26T07:10:13;4.80;99.90
23271;DHT22;11804;51.118;17.058;2024-02-26T07:12:41;4.80;99.90
23271;DHT22;11804;51.118;17.058;2024-02-26T07:15:10;4.90;99.90
23271;DHT22;11804;51.118;17.058;2024-02-26T07:17:37;5.00;99.90
23271;DHT22;11804;51.118;17.058;2024-02-26T07:20:08;4.80;99.90
23271;DHT22;11804;51.118;17.058;2024-02-26T07:22:36;5.00;99.90
23271;DHT22;11804;51.118;17.058;2024-02-26T07:25:04;5.20;99.90
23271;DHT22;11804;51.118;17.058;2024-02-26T07:27:35;5.30;99.90
23271;DHT22;11804;51.118;17.058;2024-02-26T07:30:04;5.20;99.90
23271;DHT22;11804;51.118;17.058;2024-02-26T07:32:34;5.30;99.90
23271;DHT22;11804;51.118;17.058;2024-02-26T07:35:01;5.40;99.90
23271;DHT22;11804;51.118;17.058;2024-02-26T07:37:29;5.50;99.90
23271;DHT22;11804;51.118;17.058;2024-02-26T07:39:57;5.70;99.90
23271;DHT22;11804;51.118;17.058;2024-02-26T07:42:24;5.70;99.90
23271;DHT22;11804;51.118;17.058;2024-02-26T07:44:52;6.10;99.90
23271;DHT22;11804;51.118;17.058;2024-02-26T07:47:20;6.00;99.90
23271;DHT22;11804;51.118;17.058;2024-02-26T07:49:48;6.30;99.90
23271;DHT22;11804;51.118;17.058;2024-02-26T07:52:15;6.30;99.90
23271;DHT22;11804;51.118;17.058;2024-02-26T07:54:43;6.30;99.90
23271;DHT22;11804;51.118;17.058;2024-02-26T07:57:11;6.50;99.90
23271;DHT22;11804;51.118;17.058;2024-02-26T07:59:41;6.70;99.90
23271;DHT22;11804;51.118;17.058;2024-02-26T08:02:08;7.00;99.90
23271;DHT22;11804;51.118;17.058;2024-02-26T08:04:36;7.10;99.90
23271;DHT22;11804;51.118;17.058;2024-02-26T08:07:04;7.20;99.90
23271;DHT22;11804;51.118;17.058;2024-02-26T08:09:31;7.10;99.90
23271;DHT22;11804;51.118;17.058;2024-02-26T08:12:00;7.50;99.90
23271;DHT22;11804;51.118;17.058;2024-02-26T08:14:29;7.60;99.90
23271;DHT22;11804;51.118;17.058;2024-02-26T08:16:58;7.80;99.90
23271;DHT22;11804;51.118;17.058;2024-02-26T08:19:26;8.00;99.90
23271;DHT22;11804;51.118;17.058;2024-02-26T08:21:54;8.60;99.90
23271;DHT22;11804;51.118;17.058;2024-02-26T08:24:22;9.20;99.90
23271;DHT22;11804;51.118;17.058;2024-02-26T08:26:51;9.60;99.90
23271;DHT22;11804;51.118;17.058;2024-02-26T08:29:19;9.70;99.90
23271;DHT22;11804;51.118;17.058;2024-02-26T08:31:48;9.90;99.90
23271;DHT22;11804;51.118;17.058;2024-02-26T08:34:15;10.10;99.90
23271;DHT22;11804;51.118;17.058;2024-02-26T08:36:43;10.40;99.90
23271;DHT22;11804;51.118;17.058;2024-02-26T08:39:11;11.00;99.90
23271;DHT22;11804;51.118;17.058;2024-02-26T08:41:40;10.80;99.90
23271;DHT22;11804;51.118;17.058;2024-02-26T08:44:08;11.00;99.90
23271;DHT22;11804;51.118;17.058;2024-02-26T08:46:35;11.00;99.90
23271;DHT22;11804;51.118;17.058;2024-02-26T08:49:03;11.30;99.90
23271;DHT22;11804;51.118;17.058;2024-02-26T08:51:31;10.20;99.90
23271;DHT22;11804;51.118;17.058;2024-02-26T08:53:59;11.20;99.90
23271;DHT22;11804;51.118;17.058;2024-02-26T08:56:26;11.40;99.90
23271;DHT22;11804;51.118;17.058;2024-02-26T08:58:54;11.60;99.90
23271;DHT22;11804;51.118;17.058;2024-02-26T09:01:23;11.50;99.90
23271;DHT22;11804;51.118;17.058;2024-02-26T09:03:51;11.60;99.90
23271;DHT22;11804;51.118;17.058;2024-02-26T09:06:18;11.50;99.90
23271;DHT22;11804;51.118;17.058;2024-02-26T09:08:46;11.70;99.90
23271;DHT22;11804;51.118;17.058;2024-02-26T09:11:14;12.00;99.90
23271;DHT22;11804;51.118;17.058;2024-02-26T09:13:41;12.60;99.90
23271;DHT22;11804;51.118;17.058;2024-02-26T09:16:09;13.10;99.90
23271;DHT22;11804;51.118;17.058;2024-02-26T09:18:36;12.80;99.90
23271;DHT22;11804;51.118;17.058;2024-02-26T09:21:07;13.20;99.90
23271;DHT22;11804;51.118;17.058;2024-02-26T09:23:37;13.70;99.90
23271;DHT22;11804;51.118;17.058;2024-02-26T09:26:05;12.70;99.90
23271;DHT22;11804;51.118;17.058;2024-02-26T09:28:33;13.70;99.60
23271;DHT22;11804;51.118;17.058;2024-02-26T09:31:03;14.00;97.60
23271;DHT22;11804;51.118;17.058;2024-02-26T09:33:33;13.10;99.90
23271;DHT22;11804;51.118;17.058;2024-02-26T09:36:03;13.20;99.90
23271;DHT22;11804;51.118;17.058;2024-02-26T09:38:32;13.50;99.60
23271;DHT22;11804;51.118;17.058;2024-02-26T09:41:02;14.10;97.80
23271;DHT22;11804;51.118;17.058;2024-02-26T09:43:34;13.90;97.60
23271;DHT22;11804;51.118;17.058;2024-02-26T09:46:03;13.50;97.30
23271;DHT22;11804;51.118;17.058;2024-02-26T09:48:32;12.80;99.90
23271;DHT22;11804;51.118;17.058;2024-02-26T09:51:02;13.20;99.40
23271;DHT22;11804;51.118;17.058;2024-02-26T09:53:31;13.60;98.20
23271;DHT22;11804;51.118;17.058;2024-02-26T09:55:59;13.00;97.20
23271;DHT22;11804;51.118;17.058;2024-02-26T09:58:29;13.40;97.60
23271;DHT22;11804;51.118;17.058;2024-02-26T10:00:58;13.20;98.00
23271;DHT22;11804;51.118;17.058;2024-02-26T10:03:31;13.10;98.70
23271;DHT22;11804;51.118;17.058;2024-02-26T10:05:58;12.90;99.70
23271;DHT22;11804;51.118;17.058;2024-02-26T10:08:26;12.80;99.90
23271;DHT22;11804;51.118;17.058;2024-02-26T10:10:55;12.70;99.90
23271;DHT22;11804;51.118;17.058;2024-02-26T10:13:23;12.40;99.90
23271;DHT22;11804;51.118;17.058;2024-02-26T10:15:50;12.30;99.90
23271;DHT22;11804;51.118;17.058;2024-02-26T10:18:18;12.80;99.90
23271;DHT22;11804;51.118;17.058;2024-02-26T10:21:00;13.20;98.60
23271;DHT22;11804;51.118;17.058;2024-02-26T10:23:28;13.30;97.70
23271;DHT22;11804;51.118;17.058;2024-02-26T10:25:56;13.50;96.90
23271;DHT22;11804;51.118;17.058;2024-02-26T10:28:24;13.50;96.90
23271;DHT22;11804;51.118;17.058;2024-02-26T10:30:52;13.40;96.60
23271;DHT22;11804;51.118;17.058;2024-02-26T10:33:19;13.40;98.00
23271;DHT22;11804;51.118;17.058;2024-02-26T10:35:48;13.90;96.10
23271;DHT22;11804;51.118;17.058;2024-02-26T10:38:16;13.50;95.60
23271;DHT22;11804;51.118;17.058;2024-02-26T10:40:50;13.40;96.90
23271;DHT22;11804;51.118;17.058;2024-02-26T10:43:14;14.30;95.30
23271;DHT22;11804;51.118;17.058;2024-02-26T10:45:43;14.40;92.70
23271;DHT22;11804;51.118;17.058;2024-02-26T10:48:15;13.00;96.90
23271;DHT22;11804;51.118;17.058;2024-02-26T10:50:43;13.00;97.30
23271;DHT22;11804;51.118;17.058;2024-02-26T10:53:13;13.60;98.20
23271;DHT22;11804;51.118;17.058;2024-02-26T10:55:43;14.50;94.70
23271;DHT22;11804;51.118;17.058;2024-02-26T10:58:12;15.00;92.30
23271;DHT22;11804;51.118;17.058;2024-02-26T11:00:41;14.00;94.00
23271;DHT22;11804;51.118;17.058;2024-02-26T11:03:11;13.10;96.00
23271;DHT22;11804;51.118;17.058;2024-02-26T11:05:41;13.00;96.40
23271;DHT22;11804;51.118;17.058;2024-02-26T11:08:11;13.00;97.70
23271;DHT22;11804;51.118;17.058;2024-02-26T11:10:39;13.40;95.80
23271;DHT22;11804;51.118;17.058;2024-02-26T11:13:09;13.90;96.40
23271;DHT22;11804;51.118;17.058;2024-02-26T11:15:39;13.50;95.00
23271;DHT22;11804;51.118;17.058;2024-02-26T11:18:08;13.10;96.40
23271;DHT22;11804;51.118;17.058;2024-02-26T11:20:38;12.90;95.90
23271;DHT22;11804;51.118;17.058;2024-02-26T11:23:08;12.90;97.90
23271;DHT22;11804;51.118;17.058;2024-02-26T11:25:36;13.10;97.10
23271;DHT22;11804;51.118;17.058;2024-02-26T11:28:12;13.00;97.70
23271;DHT22;11804;51.118;17.058;2024-02-26T11:30:40;13.00;97.90
23271;DHT22;11804;51.118;17.058;2024-02-26T11:33:09;13.40;97.70
23271;DHT22;11804;51.118;17.058;2024-02-26T11:35:40;13.00;96.40
23271;DHT22;11804;51.118;17.058;2024-02-26T11:38:12;13.40;96.60
23271;DHT22;11804;51.118;17.058;2024-02-26T11:40:40;13.30;97.80
23271;DHT22;11804;51.118;17.058;2024-02-26T11:43:10;13.20;97.70
23271;DHT22;11804;51.118;17.058;2024-02-26T11:48:13;13.70;95.20
23271;DHT22;11804;51.118;17.058;2024-02-26T11:50:43;13.60;94.50
23271;DHT22;11804;51.118;17.058;2024-02-26T11:53:32;13.40;92.80
23271;DHT22;11804;51.118;17.058;2024-02-26T11:58:47;13.20;95.70
23271;DHT22;11804;51.118;17.058;2024-02-26T12:04:12;13.60;97.10
23271;DHT22;11804;51.118;17.058;2024-02-26T12:06:50;13.50;96.10
23271;DHT22;11804;51.118;17.058;2024-02-26T12:09:41;13.50;96.00
23271;DHT22;11804;51.118;17.058;2024-02-26T12:12:07;13.50;95.10
23271;DHT22;11804;51.118;17.058;2024-02-26T12:14:39;13.50;96.10
23271;DHT22;11804;51.118;17.058;2024-02-26T12:17:15;13.60;95.50
23271;DHT22;11804;51.118;17.058;2024-02-26T12:19:38;13.80;95.00
23271;DHT22;11804;51.118;17.058;2024-02-26T12:22:07;13.90;94.90
23271;DHT22;11804;51.118;17.058;2024-02-26T12:24:35;13.90;94.20
23271;DHT22;11804;51.118;17.058;2024-02-26T12:27:03;13.90;94.00
23271;DHT22;11804;51.118;17.058;2024-02-26T12:29:31;14.00;93.50
23271;DHT22;11804;51.118;17.058;2024-02-26T12:31:58;14.20;93.00
23271;DHT22;11804;51.118;17.058;2024-02-26T12:34:27;13.80;94.00
23271;DHT22;11804;51.118;17.058;2024-02-26T12:36:55;13.50;94.00
23271;DHT22;11804;51.118;17.058;2024-02-26T12:39:23;13.60;93.40
23271;DHT22;11804;51.118;17.058;2024-02-26T12:41:50;13.60;94.30
23271;DHT22;11804;51.118;17.058;2024-02-26T12:44:28;13.80;93.80
23271;DHT22;11804;51.118;17.058;2024-02-26T12:47:03;13.90;93.40
23271;DHT22;11804;51.118;17.058;2024-02-26T12:49:31;13.80;93.70
23271;DHT22;11804;51.118;17.058;2024-02-26T12:51:59;13.80;93.90
23271;DHT22;11804;51.118;17.058;2024-02-26T12:54:30;13.50;94.00
23271;DHT22;11804;51.118;17.058;2024-02-26T12:57:04;13.70;93.60
23271;DHT22;11804;51.118;17.058;2024-02-26T12:59:30;13.40;94.10
23271;DHT22;11804;51.118;17.058;2024-02-26T13:01:58;13.60;94.40
23271;DHT22;11804;51.118;17.058;2024-02-26T13:04:28;13.80;93.70
23271;DHT22;11804;51.118;17.058;2024-02-26T13:06:55;13.70;94.40
23271;DHT22;11804;51.118;17.058;2024-02-26T13:09:27;13.60;94.90
23271;DHT22;11804;51.118;17.058;2024-02-26T13:11:56;13.80;94.40
23271;DHT22;11804;51.118;17.058;2024-02-26T13:14:23;13.80;94.60
23271;DHT22;11804;51.118;17.058;2024-02-26T13:16:58;13.70;94.30
23271;DHT22;11804;51.118;17.058;2024-02-26T13:19:25;13.80;94.90
23271;DHT22;11804;51.118;17.058;2024-02-26T13:21:54;13.60;94.50
23271;DHT22;11804;51.118;17.058;2024-02-26T13:24:22;13.60;94.80
23271;DHT22;11804;51.118;17.058;2024-02-26T13:26:55;13.50;93.80
23271;DHT22;11804;51.118;17.058;2024-02-26T13:29:23;13.60;93.60
23271;DHT22;11804;51.118;17.058;2024-02-26T13:31:58;13.70;93.20
23271;DHT22;11804;51.118;17.058;2024-02-26T13:34:26;13.80;93.30
23271;DHT22;11804;51.118;17.058;2024-02-26T13:36:55;13.80;92.70
23271;DHT22;11804;51.118;17.058;2024-02-26T13:39:24;13.70;92.70
23271;DHT22;11804;51.118;17.058;2024-02-26T13:41:52;13.70;93.30
23271;DHT22;11804;51.118;17.058;2024-02-26T13:44:21;13.70;94.20
23271;DHT22;11804;51.118;17.058;2024-02-26T13:46:49;13.80;95.10
23271;DHT22;11804;51.118;17.058;2024-02-26T13:49:16;13.70;94.60
23271;DHT22;11804;51.118;17.058;2024-02-26T13:51:44;13.60;95.30
23271;DHT22;11804;51.118;17.058;2024-02-26T13:54:11;13.60;95.70
23271;DHT22;11804;51.118;17.058;2024-02-26T13:56:41;13.60;95.00
23271;DHT22;11804;51.118;17.058;2024-02-26T13:59:08;13.50;95.40
23271;DHT22;11804;51.118;17.058;2024-02-26T14:01:36;13.60;95.40
23271;DHT22;11804;51.118;17.058;2024-02-26T14:04:04;13.70;95.20
23271;DHT22;11804;51.118;17.058;2024-02-26T14:06:31;13.60;94.90
23271;DHT22;11804;51.118;17.058;2024-02-26T14:08:59;13.60;95.30
23271;DHT22;11804;51.118;17.058;2024-02-26T14:11:26;13.40;95.20
23271;DHT22;11804;51.118;17.058;2024-02-26T14:13:55;13.50;93.40
23271;DHT22;11804;51.118;17.058;2024-02-26T14:16:23;14.20;94.70
23271;DHT22;11804;51.118;17.058;2024-02-26T14:18:51;13.50;92.80
23271;DHT22;11804;51.118;17.058;2024-02-26T14:21:18;13.40;94.10
23271;DHT22;11804;51.118;17.058;2024-02-26T14:23:46;13.40;90.20
23271;DHT22;11804;51.118;17.058;2024-02-26T14:26:13;13.10;94.50
23271;DHT22;11804;51.118;17.058;2024-02-26T14:28:41;13.40;93.70
23271;DHT22;11804;51.118;17.058;2024-02-26T14:31:08;13.40;94.70
23271;DHT22;11804;51.118;17.058;2024-02-26T14:33:40;13.40;91.70
23271;DHT22;11804;51.118;17.058;2024-02-26T14:36:07;13.40;89.50
23271;DHT22;11804;51.118;17.058;2024-02-26T14:38:35;13.40;94.10
23271;DHT22;11804;51.118;17.058;2024-02-26T14:41:03;13.40;89.50
23271;DHT22;11804;51.118;17.058;2024-02-26T14:43:31;13.40;92.10
23271;DHT22;11804;51.118;17.058;2024-02-26T14:46:02;13.40;90.70
23271;DHT22;11804;51.118;17.058;2024-02-26T14:48:31;13.90;95.30
23271;DHT22;11804;51.118;17.058;2024-02-26T14:50:59;13.30;91.10
23271;DHT22;11804;51.118;17.058;2024-02-26T14:53:27;13.30;95.30
23271;DHT22;11804;51.118;17.058;2024-02-26T14:55:54;13.20;91.00
23271;DHT22;11804;51.118;17.058;2024-02-26T14:58:22;13.20;92.10
23271;DHT22;11804;51.118;17.058;2024-02-26T15:00:49;13.30;90.40
23271;DHT22;11804;51.118;17.058;2024-02-26T15:03:17;13.30;90.20
23271;DHT22;11804;51.118;17.058;2024-02-26T15:05:44;13.30;95.00
23271;DHT22;11804;51.118;17.058;2024-02-26T15:08:12;13.30;90.00
23271;DHT22;11804;51.118;17.058;2024-02-26T15:10:41;13.30;93.90
23271;DHT22;11804;51.118;17.058;2024-02-26T15:13:14;13.20;90.00
23271;DHT22;11804;51.118;17.058;2024-02-26T15:15:42;13.30;92.50
23271;DHT22;11804;51.118;17.058;2024-02-26T15:18:10;13.30;92.10
23271;DHT22;11804;51.118;17.058;2024-02-26T15:20:39;13.30;92.60
23271;DHT22;11804;51.118;17.058;2024-02-26T15:23:07;13.20;90.20
23271;DHT22;11804;51.118;17.058;2024-02-26T15:25:34;13.20;90.70
23271;DHT22;11804;51.118;17.058;2024-02-26T15:28:02;13.20;94.00
23271;DHT22;11804;51.118;17.058;2024-02-26T15:30:29;13.20;90.80
23271;DHT22;11804;51.118;17.058;2024-02-26T15:32:59;13.10;91.70
23271;DHT22;11804;51.118;17.058;2024-02-26T15:35:27;13.20;95.50
23271;DHT22;11804;51.118;17.058;2024-02-26T15:37:55;13.20;94.60
23271;DHT22;11804;51.118;17.058;2024-02-26T15:40:23;13.20;95.70
23271;DHT22;11804;51.118;17.058;2024-02-26T15:42:51;13.10;94.80
23271;DHT22;11804;51.118;17.058;2024-02-26T15:45:18;13.10;93.40
23271;DHT22;11804;51.118;17.058;2024-02-26T15:47:46;13.10;96.60
23271;DHT22;11804;51.118;17.058;2024-02-26T15:50:14;13.10;96.20
23271;DHT22;11804;51.118;17.058;2024-02-26T15:52:42;13.10;93.20
23271;DHT22;11804;51.118;17.058;2024-02-26T15:55:11;13.00;96.80
23271;DHT22;11804;51.118;17.058;2024-02-26T15:57:41;13.00;95.10
23271;DHT22;11804;51.118;17.058;2024-02-26T16:00:10;13.00;93.70
23271;DHT22;11804;51.118;17.058;2024-02-26T16:02:38;12.90;93.80
23271;DHT22;11804;51.118;17.058;2024-02-26T16:05:08;12.90;96.00
23271;DHT22;11804;51.118;17.058;2024-02-26T16:07:49;12.90;94.20
23271;DHT22;11804;51.118;17.058;2024-02-26T16:10:18;12.90;97.10
23271;DHT22;11804;51.118;17.058;2024-02-26T16:12:53;12.90;95.60
23271;DHT22;11804;51.118;17.058;2024-02-26T16:15:17;12.90;94.10
23271;DHT22;11804;51.118;17.058;2024-02-26T16:17:45;12.90;96.10
23271;DHT22;11804;51.118;17.058;2024-02-26T16:20:22;12.90;94.30
23271;DHT22;11804;51.118;17.058;2024-02-26T16:22:47;12.90;96.80
23271;DHT22;11804;51.118;17.058;2024-02-26T16:25:15;12.90;96.20
23271;DHT22;11804;51.118;17.058;2024-02-26T16:27:44;12.90;98.10
23271;DHT22;11804;51.118;17.058;2024-02-26T16:30:12;12.90;94.50
23271;DHT22;11804;51.118;17.058;2024-02-26T16:32:41;12.90;97.30
23271;DHT22;11804;51.118;17.058;2024-02-26T16:35:10;12.90;99.70
23271;DHT22;11804;51.118;17.058;2024-02-26T16:37:38;12.90;96.70